Time;durP1;ratioP1;P1;durP2;ratioP2;P2;SDS_P1;SDS_P2;PMS_P1;PMS_P2;Temp;Humidity;BMP_temperature;BMP_pressure;BME280_temperature;BME280_humidity;BME280_pressure;Samples;Min_cycle;Max_cycle;Signal;HPM_P1;HPM_P2
2023/03/20 00:01:29;;;;;;;18.67;14.18;;;;;;;9.28;100.00;101078.13;5076406;28;20025;-76
2023/03/20 00:03:55;;;;;;;18.85;14.60;;;;;;;9.27;100.00;101079.09;5081987;28;20040;-76
2023/03/20 00:06:25;;;;;;;18.95;14.18;;;;;;;9.27;100.00;101080.84;5083304;28;20457;-76
2023/03/20 00:08:53;;;;;;;20.88;12.48;;;;;;;9.23;100.00;101079.44;5083876;28;20078;-75
2023/03/20 00:11:40;;;;;;;20.38;12.30;;;;;;;9.19;100.00;101067.63;5079558;28;20036;-76
2023/03/20 00:14:08;;;;;;;15.63;11.68;;;;;;;9.15;100.00;101071.41;5090185;28;20024;-76
2023/03/20 00:16:39;;;;;;;16.85;11.77;;;;;;;9.09;100.00;101066.69;5089522;28;20028;-76
2023/03/20 00:19:07;;;;;;;17.98;11.75;;;;;;;9.08;100.00;101059.84;5083300;28;20045;-76
2023/03/20 00:21:33;;;;;;;16.52;12.05;;;;;;;9.06;100.00;101064.34;5086767;28;20058;-76
2023/03/20 00:23:59;;;;;;;18.00;11.77;;;;;;;9.06;100.00;101059.97;5076390;28;20052;-77
2023/03/20 00:26:30;;;;;;;16.67;11.90;;;;;;;9.06;100.00;101061.75;5076930;28;20444;-76
2023/03/20 00:28:56;;;;;;;18.05;11.15;;;;;;;9.04;100.00;101058.44;5085108;28;20032;-76
2023/03/20 00:31:34;;;;;;;16.75;11.40;;;;;;;9.06;100.00;101056.53;5090753;28;20097;-76
2023/03/20 00:34:02;;;;;;;16.65;11.55;;;;;;;9.07;100.00;101059.00;5091014;28;20058;-76
2023/03/20 00:36:28;;;;;;;20.65;12.10;;;;;;;9.09;100.00;101062.31;5083842;28;20036;-75
2023/03/20 00:38:56;;;;;;;18.60;11.60;;;;;;;9.12;100.00;101056.06;5083897;28;20028;-75
2023/03/20 00:41:25;;;;;;;14.15;9.52;;;;;;;9.14;100.00;101054.16;5081751;28;20026;-75
2023/03/20 00:43:55;;;;;;;17.00;10.82;;;;;;;9.17;100.00;101051.31;5081556;28;20029;-76
2023/03/20 00:46:21;;;;;;;17.85;11.82;;;;;;;9.17;100.00;101053.94;5072083;28;20036;-76
2023/03/20 00:48:47;;;;;;;19.67;11.45;;;;;;;9.20;100.00;101048.47;5080872;28;20024;-76
2023/03/20 00:51:12;;;;;;;15.82;10.98;;;;;;;9.23;100.00;101048.25;5070401;28;20512;-76
2023/03/20 00:53:38;;;;;;;18.65;11.00;;;;;;;9.24;100.00;101039.50;5076153;28;20032;-76
2023/03/20 00:56:04;;;;;;;18.08;11.85;;;;;;;9.22;100.00;101041.38;5076558;28;20028;-75
2023/03/20 00:58:29;;;;;;;13.93;10.63;;;;;;;9.20;100.00;101038.09;5074785;28;20107;-76
2023/03/20 01:00:55;;;;;;;16.85;11.43;;;;;;;9.19;100.00;101036.44;5071267;28;20045;-75
2023/03/20 01:03:24;;;;;;;14.73;10.45;;;;;;;9.20;100.00;101041.50;5071643;28;20025;-75
2023/03/20 01:05:51;;;;;;;15.32;10.95;;;;;;;9.22;100.00;101041.38;5070314;28;20036;-75
2023/03/20 01:08:22;;;;;;;12.68;10.10;;;;;;;9.25;100.00;101033.34;5071719;28;20040;-76
2023/03/20 01:10:51;;;;;;;18.38;10.10;;;;;;;9.27;100.00;101029.69;5070116;28;20435;-76
2023/03/20 01:13:21;;;;;;;14.68;10.13;;;;;;;9.34;100.00;101018.78;5066200;28;20033;-76
2023/03/20 01:15:48;;;;;;;13.38;10.18;;;;;;;9.38;100.00;101023.63;5062141;28;20020;-75
2023/03/20 01:18:15;;;;;;;15.27;10.70;;;;;;;9.43;100.00;101012.84;5060171;28;21375;-76
2023/03/20 01:20:41;;;;;;;15.73;10.45;;;;;;;9.46;100.00;101018.59;5063968;28;20738;-75
2023/03/20 01:23:07;;;;;;;12.35;9.27;;;;;;;9.49;100.00;101007.97;5067335;28;20044;-75
2023/03/20 01:25:33;;;;;;;15.50;9.55;;;;;;;9.49;100.00;101010.56;5073401;28;20037;-75
2023/03/20 01:28:00;;;;;;;16.88;9.40;;;;;;;9.45;100.00;101009.16;5070437;28;20051;-75
2023/03/20 01:30:29;;;;;;;14.82;10.30;;;;;;;9.43;100.00;101007.66;5071804;28;20377;-75
2023/03/20 01:32:55;;;;;;;13.50;9.88;;;;;;;9.40;100.00;101002.69;5069816;28;20035;-75
2023/03/20 01:35:24;;;;;;;18.70;10.18;;;;;;;9.38;100.00;101010.63;5066593;28;20032;-75
2023/03/20 01:37:51;;;;;;;11.77;8.88;;;;;;;9.37;100.00;101006.38;5068100;28;20040;-75
2023/03/20 01:40:35;;;;;;;17.42;9.70;;;;;;;9.34;100.00;101003.19;5074608;28;20126;-75
2023/03/20 01:43:02;;;;;;;12.35;9.80;;;;;;;9.32;100.00;100995.50;5073555;28;20036;-75
2023/03/20 01:45:34;;;;;;;12.68;9.45;;;;;;;9.30;100.00;101000.00;5070982;28;20107;-75
2023/03/20 01:48:12;;;;;;;13.88;9.88;;;;;;;9.31;100.00;100996.47;5069657;28;20025;-76
2023/03/20 01:50:38;;;;;;;12.00;9.52;;;;;;;9.29;100.00;100987.97;5070667;28;20033;-76
2023/03/20 01:53:15;;;;;;;13.98;9.57;;;;;;;9.28;100.00;100989.72;5072728;28;20067;-75
2023/03/20 01:55:43;;;;;;;12.30;9.75;;;;;;;9.29;100.00;100986.19;5072743;28;20039;-75
2023/03/20 01:58:18;;;;;;;13.25;9.43;;;;;;;9.31;100.00;100988.66;5069553;28;20116;-76
2023/03/20 02:00:47;;;;;;;13.43;8.88;;;;;;;9.30;100.00;100980.03;5069985;28;20477;-75
2023/03/20 02:03:12;;;;;;;13.63;10.05;;;;;;;9.29;100.00;100982.75;5072296;28;20036;-75
2023/03/20 02:05:39;;;;;;;12.10;8.23;;;;;;;9.29;100.00;100983.59;5069838;28;20516;-76
2023/03/20 02:08:42;;;;;;;11.98;8.55;;;;;;;9.26;100.00;100977.81;5065675;28;20043;-75
2023/03/20 02:11:07;;;;;;;11.75;8.20;;;;;;;9.26;100.00;100980.41;5056222;28;20473;-75
2023/03/20 02:13:34;;;;;;;12.52;8.52;;;;;;;9.27;100.00;100985.47;5066395;28;20035;-75
2023/03/20 02:16:11;;;;;;;12.27;8.07;;;;;;;9.26;100.00;100977.81;5068520;28;20032;-76
2023/03/20 02:18:39;;;;;;;13.18;8.85;;;;;;;9.27;100.00;100979.44;5063487;28;20032;-76
2023/03/20 02:21:20;;;;;;;12.77;8.13;;;;;;;9.27;100.00;100976.84;5073656;28;20051;-75
2023/03/20 02:24:11;;;;;;;13.40;9.38;;;;;;;9.24;100.00;100977.91;5069971;28;20075;-75
2023/03/20 02:27:07;;;;;;;11.65;8.98;;;;;;;9.23;100.00;100975.44;5073611;28;20060;-76
2023/03/20 02:30:05;;;;;;;10.77;8.32;;;;;;;9.26;100.00;100978.63;5068393;28;20060;-75
2023/03/20 02:32:45;;;;;;;8.65;7.15;;;;;;;9.27;100.00;100977.69;5069951;28;20170;-75
2023/03/20 02:35:47;;;;;;;16.48;11.13;;;;;;;9.29;100.00;100980.16;5066064;28;20040;-75
2023/03/20 02:38:31;;;;;;;18.02;13.00;;;;;;;9.31;100.00;100973.06;5077102;28;23248;-75
2023/03/20 02:41:02;;;;;;;18.02;13.30;;;;;;;9.32;100.00;100970.34;5079485;28;20033;-75
2023/03/20 02:43:46;;;;;;;18.48;12.27;;;;;;;9.34;100.00;100971.97;5077217;28;20052;-75
2023/03/20 02:46:20;;;;;;;17.35;13.77;;;;;;;9.33;100.00;100973.75;5076763;28;20534;-75
2023/03/20 02:49:04;;;;;;;14.45;12.13;;;;;;;9.34;100.00;100972.81;5070147;28;20041;-76
2023/03/20 02:51:34;;;;;;;11.82;9.13;;;;;;;9.34;100.00;100972.81;5064007;28;20021;-75
2023/03/20 02:54:09;;;;;;;14.68;10.25;;;;;;;9.33;100.00;100971.16;5062735;28;20120;-75
2023/03/20 02:56:42;;;;;;;14.23;10.15;;;;;;;9.32;100.00;100974.72;5068242;28;20083;-75
2023/03/20 02:59:17;;;;;;;16.90;10.85;;;;;;;9.24;100.00;100972.72;5076469;28;20100;-75
2023/03/20 03:02:07;;;;;;;14.37;12.23;;;;;;;9.19;100.00;100976.63;5081189;28;20103;-75
2023/03/20 03:04:46;;;;;;;14.65;10.25;;;;;;;9.16;100.00;100974.28;5084923;28;20035;-75
2023/03/20 03:07:16;;;;;;;14.65;9.98;;;;;;;9.13;100.00;100971.94;5077835;28;20036;-75
2023/03/20 03:10:09;;;;;;;16.27;10.25;;;;;;;9.09;100.00;100978.31;5077887;28;20066;-75
2023/03/20 03:12:40;;;;;;;15.88;10.85;;;;;;;9.05;100.00;100971.72;5074746;28;20557;-76
2023/03/20 03:15:24;;;;;;;15.85;10.60;;;;;;;9.01;100.00;100971.13;5083774;28;20025;-76
2023/03/20 03:17:50;;;;;;;18.55;10.45;;;;;;;9.05;100.00;100976.91;5085516;28;20025;-75
2023/03/20 03:20:30;;;;;;;14.25;9.68;;;;;;;9.05;100.00;100966.50;5085322;28;20335;-76
2023/03/20 03:22:56;;;;;;;13.68;9.30;;;;;;;9.04;100.00;100976.06;5084128;28;20772;-76
2023/03/20 03:25:25;;;;;;;13.43;10.23;;;;;;;9.07;100.00;100977.59;5080271;28;20044;-76
2023/03/20 03:28:01;;;;;;;15.48;10.57;;;;;;;9.05;100.00;100972.53;5088047;28;20032;-75
2023/03/20 03:30:31;;;;;;;13.95;11.05;;;;;;;9.06;100.00;100974.19;5090295;28;20036;-75
2023/03/20 03:33:10;;;;;;;15.88;10.63;;;;;;;9.08;100.00;100976.66;5081016;28;20070;-75
2023/03/20 03:35:36;;;;;;;13.32;9.70;;;;;;;9.09;100.00;100973.13;5072144;28;20031;-75
2023/03/20 03:38:20;;;;;;;15.98;10.90;;;;;;;9.07;100.00;100975.84;5070143;28;20017;-75
2023/03/20 03:41:10;;;;;;;13.48;9.05;;;;;;;9.08;100.00;100971.47;5069529;28;20404;-75
2023/03/20 03:43:41;;;;;;;13.88;10.35;;;;;;;9.07;100.00;100975.00;5074204;28;20020;-75
2023/03/20 03:46:32;;;;;;;13.45;10.77;;;;;;;9.05;100.00;100971.72;5069573;28;20063;-75
2023/03/20 03:49:00;;;;;;;16.48;10.30;;;;;;;8.99;100.00;100984.25;5066676;28;20046;-75
2023/03/20 03:51:30;;;;;;;14.23;10.75;;;;;;;8.97;100.00;100977.53;5066225;28;20088;-75
2023/03/20 03:54:01;;;;;;;15.43;10.80;;;;;;;8.94;100.00;100981.22;5063953;28;20028;-75
2023/03/20 03:56:30;;;;;;;15.82;10.23;;;;;;;8.93;100.00;100979.56;5072804;28;20044;-75
2023/03/20 03:59:00;;;;;;;14.63;10.63;;;;;;;8.93;100.00;100981.31;5067071;28;20036;-75
2023/03/20 04:01:27;;;;;;;12.43;10.00;;;;;;;8.92;100.00;100977.91;5065948;28;20020;-75
2023/03/20 04:03:57;;;;;;;19.40;11.38;;;;;;;8.92;100.00;100977.91;5067708;28;20033;-75
2023/03/20 04:06:25;;;;;;;15.63;11.00;;;;;;;8.93;100.00;100982.16;5069692;28;20024;-75
2023/03/20 04:08:51;;;;;;;16.70;11.40;;;;;;;8.96;100.00;100983.69;5063113;28;20044;-75
2023/03/20 04:11:23;;;;;;;14.43;10.70;;;;;;;8.99;100.00;100988.63;5062211;28;20024;-75
2023/03/20 04:13:50;;;;;;;19.42;11.95;;;;;;;9.04;100.00;100980.44;5064365;28;20036;-75
2023/03/20 04:16:17;;;;;;;15.07;10.48;;;;;;;9.08;100.00;100981.84;5060124;28;20072;-75
2023/03/20 04:18:44;;;;;;;17.73;11.48;;;;;;;9.13;100.00;100982.31;5058588;28;20476;-75
2023/03/20 04:21:10;;;;;;;18.15;10.27;;;;;;;9.15;100.00;100986.44;5062204;28;20582;-75
2023/03/20 04:23:36;;;;;;;18.10;11.07;;;;;;;9.16;100.00;100984.69;5064971;28;20123;-75
2023/03/20 04:26:02;;;;;;;18.08;10.60;;;;;;;9.13;100.00;100984.94;5068581;28;20124;-75
2023/03/20 04:28:28;;;;;;;18.55;11.68;;;;;;;9.11;100.00;100985.03;5062174;28;20036;-74
2023/03/20 04:30:55;;;;;;;18.88;12.38;;;;;;;9.10;100.00;100987.75;5065318;28;20047;-74
2023/03/20 04:33:22;;;;;;;16.77;11.15;;;;;;;9.12;100.00;100983.28;5064575;28;20043;-74
2023/03/20 04:35:47;;;;;;;19.38;11.02;;;;;;;9.15;100.00;100983.03;5064100;28;20036;-75
2023/03/20 04:38:13;;;;;;;18.65;11.20;;;;;;;9.17;100.00;100983.72;5059649;28;20024;-74
2023/03/20 04:40:38;;;;;;;30.05;12.20;;;;;;;9.16;100.00;100982.91;5057748;28;20095;-74
2023/03/20 04:43:04;;;;;;;19.48;11.00;;;;;;;9.13;100.00;100984.94;5060224;28;20490;-75
2023/03/20 04:45:30;;;;;;;15.63;11.73;;;;;;;9.09;100.00;100988.72;5063976;28;20477;-75
2023/03/20 04:47:55;;;;;;;16.88;11.10;;;;;;;9.06;100.00;100984.59;5061164;28;20347;-74
2023/03/20 04:50:21;;;;;;;20.00;12.10;;;;;;;9.03;100.00;100987.41;5066430;28;20058;-75
2023/03/20 04:52:47;;;;;;;21.95;11.95;;;;;;;8.99;100.00;100989.44;5066279;28;20024;-75
2023/03/20 04:55:12;;;;;;;18.05;10.60;;;;;;;8.94;100.00;100988.19;5063717;28;20111;-75
2023/03/20 04:57:38;;;;;;;26.27;12.13;;;;;;;8.92;100.00;100990.91;5064846;28;20064;-75
2023/03/20 05:00:04;;;;;;;16.92;10.77;;;;;;;8.92;100.00;100990.06;5059608;28;20435;-76
2023/03/20 05:02:30;;;;;;;14.38;11.30;;;;;;;8.88;100.00;100984.28;5067573;28;20070;-75
2023/03/20 05:04:55;;;;;;;15.68;11.02;;;;;;;8.87;100.00;100989.59;5057660;28;20032;-76
2023/03/20 05:07:21;;;;;;;16.50;9.70;;;;;;;8.80;100.00;100986.66;5066461;28;20042;-76
2023/03/20 05:09:46;;;;;;;22.27;10.10;;;;;;;8.77;100.00;100991.25;5066444;28;20444;-76
2023/03/20 05:12:12;;;;;;;18.08;9.57;;;;;;;8.70;100.00;100985.72;5060815;28;20462;-75
2023/03/20 05:14:37;;;;;;;15.40;8.85;;;;;;;8.63;100.00;100979.34;5064108;28;20033;-76
2023/03/20 05:17:03;;;;;;;11.57;8.27;;;;;;;8.59;100.00;100985.72;5063408;28;20016;-76
2023/03/20 05:19:28;;;;;;;16.15;9.23;;;;;;;8.57;100.00;100985.00;5061474;28;20043;-76
2023/03/20 05:21:54;;;;;;;17.70;9.35;;;;;;;8.53;100.00;100983.59;5067318;28;20393;-75
2023/03/20 05:24:20;;;;;;;18.10;9.75;;;;;;;8.48;100.00;100980.56;5070426;28;20052;-76
2023/03/20 05:26:46;;;;;;;16.83;9.88;;;;;;;8.45;100.00;100978.19;5061034;28;20081;-77
2023/03/20 05:29:11;;;;;;;19.15;10.45;;;;;;;8.44;100.00;100974.78;5060566;28;20036;-76
2023/03/20 05:31:37;;;;;;;18.60;9.10;;;;;;;8.38;100.00;100983.03;5057796;28;20045;-76
2023/03/20 05:34:02;;;;;;;15.85;9.65;;;;;;;8.39;100.00;100983.84;5063057;28;20353;-76
2023/03/20 05:36:28;;;;;;;14.43;9.05;;;;;;;8.35;100.00;100983.25;5066709;28;20042;-76
2023/03/20 05:38:53;;;;;;;16.00;9.95;;;;;;;8.34;100.00;100979.00;5062740;28;20028;-76
2023/03/20 05:41:19;;;;;;;18.00;9.48;;;;;;;8.34;100.00;100981.63;5057543;28;20040;-76
2023/03/20 05:43:44;;;;;;;12.65;9.07;;;;;;;8.32;100.00;100984.31;5066136;28;20449;-76
2023/03/20 05:46:10;;;;;;;13.27;9.20;;;;;;;8.33;100.00;100979.97;5059636;28;20036;-75
2023/03/20 05:48:35;;;;;;;13.82;9.00;;;;;;;8.33;100.00;100979.97;5057613;28;20028;-76
2023/03/20 05:51:01;;;;;;;21.17;9.73;;;;;;;8.34;100.00;100983.38;5062006;28;20489;-76
2023/03/20 05:53:26;;;;;;;18.10;9.48;;;;;;;8.34;100.00;100975.59;5060723;28;20033;-76
2023/03/20 05:55:52;;;;;;;20.00;10.23;;;;;;;8.34;100.00;100981.63;5064562;28;20028;-76
2023/03/20 05:58:18;;;;;;;14.65;9.63;;;;;;;8.37;100.00;100973.59;5062602;28;20029;-76
2023/03/20 06:00:43;;;;;;;16.08;9.15;;;;;;;8.39;100.00;100976.06;5062774;28;20039;-76
2023/03/20 06:03:09;;;;;;;15.20;10.02;;;;;;;8.37;100.00;100988.34;5065631;28;20025;-76
2023/03/20 06:05:35;;;;;;;15.57;10.38;;;;;;;8.40;100.00;100988.09;5060732;28;20447;-76
2023/03/20 06:08:01;;;;;;;18.80;10.70;;;;;;;8.41;100.00;100992.34;5063526;28;20487;-76
2023/03/20 06:10:28;;;;;;;15.32;9.68;;;;;;;8.39;100.00;100995.06;5066166;28;20028;-76
2023/03/20 06:12:55;;;;;;;15.85;10.43;;;;;;;8.41;100.00;100992.34;5066410;28;20036;-76
2023/03/20 06:15:20;;;;;;;20.33;9.73;;;;;;;8.45;100.00;101001.56;5064848;28;20523;-76
2023/03/20 06:17:46;;;;;;;16.90;10.48;;;;;;;8.46;100.00;100995.44;5064558;28;20058;-76
2023/03/20 06:20:12;;;;;;;16.35;9.80;;;;;;;8.44;100.00;101000.75;5059627;28;20044;-76
2023/03/20 06:22:37;;;;;;;20.90;10.10;;;;;;;8.48;100.00;101007.34;5064588;28;20044;-76
2023/03/20 06:25:04;;;;;;;13.50;8.57;;;;;;;8.46;100.00;101009.25;5066941;28;20420;-76
2023/03/20 06:27:30;;;;;;;16.95;9.70;;;;;;;8.44;100.00;101008.53;5061766;28;20028;-76
2023/03/20 06:29:56;;;;;;;17.17;10.48;;;;;;;8.44;100.00;101005.94;5067128;28;20043;-76
2023/03/20 06:32:21;;;;;;;17.83;10.65;;;;;;;8.42;100.00;101010.41;5067204;28;20515;-76
2023/03/20 06:34:47;;;;;;;16.98;9.85;;;;;;;8.43;100.00;101003.44;5066032;28;20036;-76
2023/03/20 06:37:12;;;;;;;18.60;9.40;;;;;;;8.43;100.00;101006.06;5063920;28;20474;-76
2023/03/20 06:39:38;;;;;;;13.45;8.90;;;;;;;8.44;100.00;101008.53;5062449;28;20037;-76
2023/03/20 06:42:04;;;;;;;15.10;9.98;;;;;;;8.43;100.00;101009.47;5060335;28;20021;-76
2023/03/20 06:44:29;;;;;;;14.48;9.10;;;;;;;8.44;100.00;101007.72;5065816;28;20024;-76
2023/03/20 06:46:55;;;;;;;14.90;8.40;;;;;;;8.46;100.00;101013.59;5065795;28;20036;-76
2023/03/20 06:49:20;;;;;;;15.75;9.30;;;;;;;8.48;100.00;101009.13;5067386;28;20043;-76
2023/03/20 06:51:47;;;;;;;14.45;9.40;;;;;;;8.51;100.00;101017.47;5066127;28;20052;-76
2023/03/20 06:54:13;;;;;;;16.63;9.70;;;;;;;8.53;100.00;101015.59;5068580;28;20032;-76
2023/03/20 06:56:38;;;;;;;18.95;9.82;;;;;;;8.55;100.00;101010.28;5065238;28;20035;-76
2023/03/20 06:59:04;;;;;;;16.75;10.65;;;;;;;8.57;100.00;101021.38;5064503;28;20032;-76
2023/03/20 07:01:29;;;;;;;17.40;11.18;;;;;;;8.61;100.00;101022.78;5062356;28;20055;-76
2023/03/20 07:03:55;;;;;;;23.15;11.65;;;;;;;8.70;100.00;101024.69;5063916;28;20092;-76
2023/03/20 07:06:21;;;;;;;19.85;12.00;;;;;;;8.75;100.00;101022.56;5059694;28;20044;-76
2023/03/20 07:08:47;;;;;;;26.85;13.27;;;;;;;8.76;100.00;101021.63;5066960;28;20437;-76
2023/03/20 07:11:13;;;;;;;28.58;12.82;;;;;;;8.72;100.00;101022.81;5061771;28;24117;-76
2023/03/20 07:13:39;;;;;;;25.17;13.52;;;;;;;8.72;100.00;101029.75;5067078;28;20024;-75
2023/03/20 07:16:05;;;;;;;29.13;13.73;;;;;;;8.72;100.00;101035.78;5064577;28;20116;-75
2023/03/20 07:18:31;;;;;;;20.88;11.63;;;;;;;8.73;100.00;101026.22;5071408;28;20110;-75
2023/03/20 07:21:01;;;;;;;23.60;11.75;;;;;;;8.76;100.00;101029.41;5068607;28;20047;-75
2023/03/20 07:23:27;;;;;;;24.45;12.27;;;;;;;8.81;100.00;101027.28;5080122;28;20139;-75
2023/03/20 07:25:52;;;;;;;22.23;12.13;;;;;;;8.84;100.00;101027.06;5074512;28;20043;-75
2023/03/20 07:28:18;;;;;;;17.98;10.45;;;;;;;8.91;100.00;101038.63;5070585;28;20406;-75
2023/03/20 07:30:43;;;;;;;20.60;11.18;;;;;;;8.97;100.00;101039.91;5063879;28;20525;-75
2023/03/20 07:33:09;;;;;;;18.38;10.60;;;;;;;9.07;100.00;101037.41;5068413;28;20388;-75
2023/03/20 07:35:34;;;;;;;19.98;10.82;;;;;;;9.08;100.00;101045.06;5065918;28;20020;-75
2023/03/20 07:38:00;;;;;;;24.67;10.85;;;;;;;9.08;100.00;101050.28;5062275;28;20033;-75
2023/03/20 07:40:26;;;;;;;21.63;11.88;;;;;;;9.12;100.00;101056.06;5070955;28;20033;-75
2023/03/20 07:42:51;;;;;;;18.83;9.98;;;;;;;9.15;100.00;101050.63;5067835;28;20044;-75
2023/03/20 07:45:17;;;;;;;18.75;9.13;;;;;;;9.18;100.00;101053.81;5065057;28;20024;-75
2023/03/20 07:47:44;;;;;;;17.73;10.57;;;;;;;9.20;100.00;101064.91;5065124;28;20473;-75
2023/03/20 07:50:10;;;;;;;21.60;10.93;;;;;;;9.20;100.00;101064.91;5062343;28;20021;-76
2023/03/20 07:52:36;;;;;;;24.45;12.75;;;;;;;9.22;100.00;101051.78;5062452;28;20039;-76
2023/03/20 07:55:01;;;;;;;35.33;15.45;;;;;;;9.25;100.00;101059.34;5069553;28;20107;-75
2023/03/20 07:57:27;;;;;;;32.70;16.90;;;;;;;9.27;100.00;101053.09;5067047;28;20374;-76
2023/03/20 07:59:52;;;;;;;22.02;10.30;;;;;;;9.32;100.00;101057.91;5067821;28;20044;-76
2023/03/20 08:02:18;;;;;;;14.75;8.60;;;;;;;9.39;100.00;101063.47;5064141;28;20469;-76
2023/03/20 08:04:44;;;;;;;20.55;9.65;;;;;;;9.44;100.00;101056.13;5064248;28;20029;-76
2023/03/20 08:07:10;;;;;;;22.33;10.60;;;;;;;9.48;100.00;101060.94;5065391;28;20048;-76
2023/03/20 08:09:36;;;;;;;17.25;9.45;;;;;;;9.52;100.00;101064.09;5064913;28;20056;-75
2023/03/20 08:12:02;;;;;;;17.48;7.88;;;;;;;9.57;100.00;101056.75;5062150;28;20063;-76
2023/03/20 08:14:27;;;;;;;19.85;8.80;;;;;;;9.68;100.00;101063.72;5069459;28;20343;-75
2023/03/20 08:16:53;;;;;;;20.45;9.05;;;;;;;9.71;100.00;101061.69;5067279;28;20028;-75
2023/03/20 08:19:18;;;;;;;18.17;9.30;;;;;;;9.76;100.00;101056.13;5063322;28;20117;-76
2023/03/20 08:21:44;;;;;;;16.67;8.43;;;;;;;9.80;100.00;101057.53;5066703;28;20032;-75
2023/03/20 08:24:10;;;;;;;15.85;8.63;;;;;;;9.85;100.00;101061.41;5064800;28;20044;-75
2023/03/20 08:26:35;;;;;;;48.13;23.38;;;;;;;9.89;100.00;101067.19;5060399;28;20052;-75
2023/03/20 08:29:01;;;;;;;22.77;12.50;;;;;;;9.94;100.00;101062.41;5062972;28;20033;-75
2023/03/20 08:31:26;;;;;;;17.83;9.13;;;;;;;9.99;100.00;101062.84;5066113;28;20032;-75
2023/03/20 08:33:53;;;;;;;13.85;8.40;;;;;;;10.04;100.00;101060.69;5066049;28;20179;-75
2023/03/20 08:36:20;;;;;;;20.85;10.27;;;;;;;10.18;100.00;101067.38;5065254;28;20085;-75
2023/03/20 08:38:48;;;;;;;14.27;9.27;;;;;;;10.32;100.00;101067.09;5064632;28;20025;-75
2023/03/20 08:41:14;;;;;;;14.63;9.98;;;;;;;10.46;100.00;101068.50;5060908;28;20126;-76
2023/03/20 08:43:39;;;;;;;14.57;8.48;;;;;;;10.65;100.00;101066.00;5057881;28;20038;-75
2023/03/20 08:46:05;;;;;;;14.88;9.43;;;;;;;10.79;100.00;101072.66;5059873;28;20044;-75
2023/03/20 08:48:31;;;;;;;13.45;9.73;;;;;;;10.89;100.00;101073.50;5056021;28;20024;-75
2023/03/20 08:50:56;;;;;;;12.02;7.90;;;;;;;10.84;100.00;101071.31;5058758;28;20130;-75
2023/03/20 08:53:22;;;;;;;16.75;9.75;;;;;;;10.75;100.00;101072.09;5061916;28;20042;-75
2023/03/20 08:55:49;;;;;;;12.48;9.18;;;;;;;10.78;100.00;101076.22;5064096;28;20083;-75
2023/03/20 08:58:15;;;;;;;15.32;9.57;;;;;;;10.79;100.00;101070.88;5060985;28;20039;-75
2023/03/20 09:00:41;;;;;;;11.00;8.73;;;;;;;10.84;100.00;101075.72;5061283;28;20028;-73
2023/03/20 09:03:06;;;;;;;15.50;10.48;;;;;;;10.91;100.00;101075.03;5057320;28;20098;-74
2023/03/20 09:05:35;;;;;;;18.42;10.25;;;;;;;10.88;100.00;101072.69;5059919;28;20036;-75
2023/03/20 09:08:00;;;;;;;22.35;10.93;;;;;;;10.84;100.00;101071.31;5057262;28;20090;-75
2023/03/20 09:10:26;;;;;;;21.25;10.80;;;;;;;10.87;100.00;101065.81;5060441;28;20044;-75
2023/03/20 09:12:51;;;;;;;20.52;10.60;;;;;;;11.00;100.00;101067.38;5056587;28;20042;-74
2023/03/20 09:15:17;;;;;;;18.85;10.25;;;;;;;11.03;100.00;101072.31;5062846;28;20097;-74
2023/03/20 09:17:42;;;;;;;16.33;9.85;;;;;;;11.05;100.00;101075.63;5060298;28;20036;-74
2023/03/20 09:20:08;;;;;;;14.73;9.20;;;;;;;11.03;100.00;101080.16;5062760;28;20035;-74
2023/03/20 09:22:34;;;;;;;18.63;9.80;;;;;;;11.07;100.00;101071.94;5060870;28;20056;-74
2023/03/20 09:24:59;;;;;;;15.55;9.18;;;;;;;11.16;100.00;101073.75;5063324;28;20548;-74
2023/03/20 09:27:25;;;;;;;15.07;9.00;;;;;;;11.19;100.00;101070.03;5064460;28;20036;-75
2023/03/20 09:29:50;;;;;;;15.38;9.75;;;;;;;11.29;100.00;101074.31;5064259;28;20548;-70
2023/03/20 09:32:16;;;;;;;12.57;8.70;;;;;;;11.46;100.00;101077.22;5065586;28;20028;-71
2023/03/20 09:34:41;;;;;;;20.50;9.27;;;;;;;11.47;100.00;101077.09;5063442;28;20024;-70
2023/03/20 09:37:07;;;;;;;13.15;8.73;;;;;;;11.45;100.00;101075.56;5056438;28;20024;-69
2023/03/20 09:39:34;;;;;;;12.00;7.72;;;;;;;11.39;100.00;101076.94;5062270;28;20101;-69
2023/03/20 09:42:07;;;;;;;13.77;7.80;;;;;;;11.37;100.00;101073.63;5064753;28;20025;-70
2023/03/20 09:44:58;;;;;;;11.10;8.52;;;;;;;11.35;100.00;101066.91;5058416;28;20033;-70
2023/03/20 09:47:42;;;;;;;13.90;8.20;;;;;;;11.59;100.00;101059.53;5062729;28;20131;-72
2023/03/20 09:50:35;;;;;;;9.00;7.35;;;;;;;11.63;100.00;101068.72;5059915;28;20029;-73
2023/03/20 09:53:24;;;;;;;13.65;6.82;;;;;;;11.56;100.00;101071.06;5060208;28;20489;-72
2023/03/20 09:55:51;;;;;;;11.93;6.90;;;;;;;11.60;100.00;101069.00;5062414;28;20047;-73
2023/03/20 09:58:22;;;;;;;12.82;7.40;;;;;;;11.74;100.00;101070.38;5058823;28;20028;-74
2023/03/20 10:00:48;;;;;;;11.88;6.65;;;;;;;11.81;100.00;101066.31;5060025;28;20032;-73
2023/03/20 10:03:35;;;;;;;16.05;7.45;;;;;;;11.91;100.00;101057.47;5063360;28;20041;-76
2023/03/20 10:06:05;;;;;;;8.05;5.75;;;;;;;12.01;100.00;101067.91;5059112;28;20036;-74
2023/03/20 10:08:36;;;;;;;8.82;6.28;;;;;;;12.05;100.00;101071.06;5061684;28;20115;-74
2023/03/20 10:11:23;;;;;;;10.10;5.70;;;;;;;12.12;100.00;101080.00;5067433;28;20041;-73
2023/03/20 10:13:54;;;;;;;7.40;5.70;;;;;;;12.40;100.00;101065.22;5064965;28;20147;-74
2023/03/20 10:16:53;;;;;;;7.85;5.82;;;;;;;12.79;100.00;101064.13;5062963;28;20020;-74
2023/03/20 10:19:29;;;;;;;5.50;4.82;;;;;;;12.95;100.00;101064.31;5062988;28;20034;-73
2023/03/20 10:22:24;;;;;;;7.22;4.50;;;;;;;13.32;100.00;101063.44;5067484;28;20033;-74
2023/03/20 10:25:09;;;;;;;5.20;4.03;;;;;;;13.20;96.43;101060.25;5067252;28;20494;-73
2023/03/20 10:27:48;;;;;;;4.88;2.97;;;;;;;13.01;100.00;101057.69;5067177;28;20024;-74
2023/03/20 10:30:25;;;;;;;3.42;3.13;;;;;;;13.29;100.00;101056.72;5067883;28;20036;-74
2023/03/20 10:33:05;;;;;;;3.53;1.95;;;;;;;13.38;98.09;101049.78;5065938;28;20159;-74
2023/03/20 10:35:36;;;;;;;4.43;2.47;;;;;;;13.07;99.61;101048.44;5066375;28;20080;-72
2023/03/20 10:38:02;;;;;;;2.47;1.75;;;;;;;12.88;100.00;101047.56;5066470;28;20028;-73
2023/03/20 10:40:36;;;;;;;2.95;2.00;;;;;;;13.00;99.32;101032.50;5069518;28;20053;-74
2023/03/20 10:43:13;;;;;;;3.55;2.33;;;;;;;13.22;99.20;101034.75;5067217;28;20116;-74
2023/03/20 10:45:52;;;;;;;2.80;1.45;;;;;;;13.57;98.97;101026.09;5070729;28;20082;-74
2023/03/20 10:48:30;;;;;;;2.20;2.00;;;;;;;13.80;95.52;101023.81;5064119;28;20576;-76
2023/03/20 10:50:58;;;;;;;2.25;2.00;;;;;;;13.64;95.68;101023.69;5067442;28;20043;-76
2023/03/20 10:53:47;;;;;;;2.42;1.75;;;;;;;13.35;93.36;101023.91;5068071;28;20116;-76
2023/03/20 10:56:20;;;;;;;4.85;1.67;;;;;;;13.26;95.31;101023.00;5066122;28;20032;-75
2023/03/20 10:58:48;;;;;;;3.35;1.60;;;;;;;13.30;95.19;101020.91;5066999;28;20101;-74
2023/03/20 11:01:15;;;;;;;2.45;1.88;;;;;;;13.68;94.98;101018.97;5065875;28;20454;-75
2023/03/20 11:03:40;;;;;;;2.60;2.08;;;;;;;13.76;92.74;101016.41;5068906;28;20058;-74
2023/03/20 11:06:17;;;;;;;4.30;2.47;;;;;;;13.64;90.10;101009.78;5066544;28;20586;-74
2023/03/20 11:08:48;;;;;;;6.13;2.50;;;;;;;13.67;92.46;101002.44;5062865;28;20071;-74
2023/03/20 11:11:21;;;;;;;4.10;2.33;;;;;;;13.77;92.32;100997.09;5062869;28;20033;-74
2023/03/20 11:13:48;;;;;;;5.70;2.83;;;;;;;13.88;92.80;100999.47;5069111;28;20020;-74
2023/03/20 11:16:19;;;;;;;4.50;2.65;;;;;;;14.04;91.89;100996.97;5069926;28;20362;-74
2023/03/20 11:18:48;;;;;;;4.05;2.28;;;;;;;14.06;92.98;100991.56;5067345;28;20063;-73
2023/03/20 11:21:20;;;;;;;5.20;2.72;;;;;;;14.13;92.90;100982.94;5063284;28;22756;-72
2023/03/20 11:23:46;;;;;;;4.93;3.22;;;;;;;14.18;91.97;100983.28;5064408;28;20037;-72